Time;durP1;ratioP1;P1;durP2;ratioP2;P2;SDS_P1;SDS_P2;PMS_P1;PMS_P2;Temp;Humidity;BMP_temperature;BMP_pressure;BME280_temperature;BME280_humidity;BME280_pressure;Samples;Min_cycle;Max_cycle;Signal;HPM_P1;HPM_P2
2023/12/30 00:00:33;;;;;;;4.90;3.50;;;;;;;8.44;70.65;99543.56;4991933;28;20283;-61
2023/12/30 00:03:01;;;;;;;6.47;3.73;;;;;;;8.39;70.90;99538.44;4991748;28;20210;-63
2023/12/30 00:05:29;;;;;;;4.93;3.30;;;;;;;8.36;71.14;99537.63;4992057;28;20569;-60
2023/12/30 00:07:57;;;;;;;8.37;4.20;;;;;;;8.31;71.18;99532.53;4992075;28;20725;-61
2023/12/30 00:10:25;;;;;;;6.13;3.83;;;;;;;8.27;71.40;99545.41;4992146;28;20690;-61
2023/12/30 00:12:53;;;;;;;6.07;4.07;;;;;;;8.20;70.65;99545.47;4990166;28;20738;-64
2023/12/30 00:15:22;;;;;;;6.23;3.93;;;;;;;8.12;71.32;99536.16;4991894;28;20228;-60
2023/12/30 00:17:50;;;;;;;6.50;4.50;;;;;;;8.04;71.69;99543.94;4991717;28;20217;-60
2023/12/30 00:20:19;;;;;;;7.47;4.07;;;;;;;7.95;71.85;99541.44;4992100;28;20663;-58
2023/12/30 00:22:47;;;;;;;7.43;4.67;;;;;;;7.87;72.29;99545.78;4991515;28;20231;-57
2023/12/30 00:25:16;;;;;;;8.23;4.70;;;;;;;7.79;73.02;99545.84;4991091;28;20666;-56
2023/12/30 00:27:44;;;;;;;8.70;5.07;;;;;;;7.68;72.84;99545.94;4991941;28;20203;-57
2023/12/30 00:30:13;;;;;;;7.13;4.87;;;;;;;7.63;73.38;99551.97;4992251;28;20679;-56
2023/12/30 00:32:43;;;;;;;8.53;5.00;;;;;;;7.56;73.43;99540.06;4979046;28;20215;-56
2023/12/30 00:35:11;;;;;;;8.87;5.10;;;;;;;7.48;73.31;99533.28;4991759;28;20222;-58
2023/12/30 00:37:39;;;;;;;11.43;5.70;;;;;;;7.41;73.75;99535.91;4991566;28;20216;-66
2023/12/30 00:40:08;;;;;;;9.63;5.20;;;;;;;7.33;74.03;99528.28;4992193;28;20697;-54
2023/12/30 00:42:36;;;;;;;11.60;6.50;;;;;;;7.28;74.39;99530.00;4991352;28;20659;-57
2023/12/30 00:45:05;;;;;;;8.77;5.53;;;;;;;7.23;74.35;99542.84;4991967;28;20188;-56
2023/12/30 00:47:33;;;;;;;9.73;5.97;;;;;;;7.15;75.81;99530.94;4991794;28;20309;-57
2023/12/30 00:50:03;;;;;;;9.83;6.17;;;;;;;7.14;75.94;99545.47;4992415;28;20258;-63
2023/12/30 00:52:31;;;;;;;9.23;5.50;;;;;;;7.11;75.34;99534.38;4991915;28;20279;-61
2023/12/30 00:54:59;;;;;;;11.40;6.07;;;;;;;7.09;75.26;99538.66;4992138;28;20212;-57
2023/12/30 00:57:27;;;;;;;9.40;5.47;;;;;;;7.07;76.54;99531.00;4991205;28;20291;-60
2023/12/30 00:59:55;;;;;;;10.50;5.77;;;;;;;7.07;76.33;99533.56;4992420;28;20223;-58
2023/12/30 01:02:23;;;;;;;9.97;5.87;;;;;;;7.06;75.90;99529.28;4992908;28;20204;-59
2023/12/30 01:04:51;;;;;;;10.00;6.37;;;;;;;7.04;76.43;99523.31;4991616;28;20582;-61
2023/12/30 01:07:21;;;;;;;9.03;5.40;;;;;;;7.02;76.75;99518.19;4991890;28;20296;-62
2023/12/30 01:09:49;;;;;;;8.73;5.30;;;;;;;7.02;76.34;99518.19;4991337;28;20299;-60
2023/12/30 01:12:19;;;;;;;8.20;4.97;;;;;;;7.02;76.80;99519.91;4991329;28;20295;-58
2023/12/30 01:14:47;;;;;;;10.67;5.63;;;;;;;7.03;76.49;99519.03;4990079;28;20220;-60
2023/12/30 01:17:14;;;;;;;11.23;4.90;;;;;;;7.04;76.33;99501.97;4991440;28;20243;-58
2023/12/30 01:19:42;;;;;;;9.67;5.63;;;;;;;7.07;76.73;99513.06;4991247;28;20208;-58
2023/12/30 01:22:11;;;;;;;7.90;4.70;;;;;;;7.12;76.90;99515.59;4991313;28;20591;-56
2023/12/30 01:24:41;;;;;;;7.27;4.43;;;;;;;7.15;76.86;99513.00;4993724;28;20656;-56
2023/12/30 01:27:09;;;;;;;7.73;4.40;;;;;;;7.18;76.99;99515.53;4989338;28;20222;-58
2023/12/30 01:29:36;;;;;;;7.90;4.63;;;;;;;7.20;76.71;99512.09;4995005;28;20265;-56
2023/12/30 01:32:05;;;;;;;8.73;4.80;;;;;;;7.23;76.59;99504.41;4993842;28;20214;-57
2023/12/30 01:34:33;;;;;;;6.07;4.40;;;;;;;7.29;76.48;99505.22;4994890;28;20223;-61
2023/12/30 01:37:01;;;;;;;7.50;4.57;;;;;;;7.31;75.40;99500.94;4994950;28;20343;-57
2023/12/30 01:39:29;;;;;;;6.53;4.17;;;;;;;7.35;76.71;99500.06;4994906;28;20207;-58
2023/12/30 01:41:58;;;;;;;8.00;4.77;;;;;;;7.37;76.29;99503.47;4994658;28;20208;-63
2023/12/30 01:44:26;;;;;;;7.23;4.40;;;;;;;7.38;75.63;99506.00;4994637;28;20687;-61
2023/12/30 01:46:55;;;;;;;8.87;4.57;;;;;;;7.39;75.80;99496.59;4994377;28;20290;-63
2023/12/30 01:49:23;;;;;;;9.40;4.97;;;;;;;7.42;75.90;99496.59;4992879;28;20231;-63
2023/12/30 01:51:53;;;;;;;8.10;4.20;;;;;;;7.43;75.05;99490.59;4994582;28;20200;-63
2023/12/30 01:54:22;;;;;;;6.83;4.07;;;;;;;7.45;76.22;99483.75;4994299;28;20578;-63
2023/12/30 01:56:50;;;;;;;8.50;4.23;;;;;;;7.46;75.11;99486.28;4994384;28;20604;-60
2023/12/30 01:59:20;;;;;;;6.57;4.03;;;;;;;7.46;75.57;99477.75;4994601;28;20737;-62
2023/12/30 02:01:48;;;;;;;5.03;3.77;;;;;;;7.48;75.20;99481.16;4994125;28;20208;-61
2023/12/30 02:04:16;;;;;;;6.87;4.57;;;;;;;7.49;74.96;99472.59;4994037;28;20212;-61
2023/12/30 02:06:44;;;;;;;6.50;4.10;;;;;;;7.51;75.61;99481.13;4992699;28;20227;-63
2023/12/30 02:09:13;;;;;;;6.57;4.47;;;;;;;7.50;75.28;99477.72;4994231;28;20735;-61
2023/12/30 02:11:42;;;;;;;5.77;4.37;;;;;;;7.55;75.76;99477.69;4993743;28;20208;-60
2023/12/30 02:14:24;;;;;;;5.33;4.03;;;;;;;7.55;75.54;99480.25;4993985;28;20567;-61
2023/12/30 02:16:53;;;;;;;6.57;4.60;;;;;;;7.56;75.06;99471.69;4993891;28;20505;-63
2023/12/30 02:19:20;;;;;;;7.73;4.20;;;;;;;7.57;75.02;99465.69;4994040;28;20648;-62
2023/12/30 02:21:49;;;;;;;6.07;4.43;;;;;;;7.58;74.97;99458.84;4993878;28;20247;-62
2023/12/30 02:24:20;;;;;;;6.10;3.87;;;;;;;7.55;75.06;99452.06;4992487;28;20204;-63
2023/12/30 02:26:48;;;;;;;6.80;4.13;;;;;;;7.59;75.29;99451.16;4994131;28;20303;-63
2023/12/30 02:29:15;;;;;;;5.43;4.00;;;;;;;7.62;75.60;99442.56;4993542;28;20204;-61
2023/12/30 02:31:47;;;;;;;5.50;3.83;;;;;;;7.64;75.20;99433.16;4993503;28;20204;-62
2023/12/30 02:34:16;;;;;;;6.30;3.83;;;;;;;7.65;75.08;99433.13;4986557;28;20628;-63
2023/12/30 02:36:45;;;;;;;6.07;4.00;;;;;;;7.65;74.65;99433.13;4992777;28;20649;-61
2023/12/30 02:39:14;;;;;;;6.37;3.70;;;;;;;7.69;74.96;99424.53;4992220;28;20207;-61
2023/12/30 02:41:43;;;;;;;4.97;3.30;;;;;;;7.71;74.59;99429.69;4993741;28;20675;-63
2023/12/30 02:44:15;;;;;;;4.90;3.53;;;;;;;7.73;73.99;99436.50;4993846;28;20254;-62
2023/12/30 02:46:43;;;;;;;6.27;3.67;;;;;;;7.75;74.27;99434.75;4993534;28;20655;-62
2023/12/30 02:49:11;;;;;;;6.07;3.57;;;;;;;7.78;74.21;99427.91;4993552;28;20681;-62
2023/12/30 02:51:39;;;;;;;6.57;4.17;;;;;;;7.78;74.19;99425.34;4993111;28;20204;-64
2023/12/30 02:54:06;;;;;;;6.57;3.13;;;;;;;7.80;73.57;99423.59;4993515;28;20200;-62
2023/12/30 02:56:34;;;;;;;5.97;3.60;;;;;;;7.79;73.58;99427.03;4991938;28;20235;-62
2023/12/30 02:59:04;;;;;;;4.60;3.43;;;;;;;7.80;74.20;99410.78;4990716;28;20620;-61
2023/12/30 03:01:32;;;;;;;5.37;3.60;;;;;;;7.81;73.91;99412.50;4993284;28;20203;-62
2023/12/30 03:04:01;;;;;;;5.37;3.73;;;;;;;7.83;73.66;99415.88;4993404;28;20647;-63
2023/12/30 03:06:29;;;;;;;4.23;3.20;;;;;;;7.86;73.09;99418.41;4993198;28;20219;-63
2023/12/30 03:08:57;;;;;;;7.63;3.93;;;;;;;7.86;74.00;99415.84;4993000;28;20204;-63
2023/12/30 03:11:25;;;;;;;6.37;3.50;;;;;;;7.87;73.87;99409.84;4992922;28;20219;-62
2023/12/30 03:13:54;;;;;;;5.37;3.20;;;;;;;7.87;73.63;99392.75;4991934;28;20659;-63
2023/12/30 03:16:23;;;;;;;5.83;3.77;;;;;;;7.89;73.23;99391.03;4993057;28;20219;-65
2023/12/30 03:18:51;;;;;;;4.67;3.23;;;;;;;7.92;73.90;99385.00;4992948;28;20211;-62
2023/12/30 03:21:20;;;;;;;5.57;3.20;;;;;;;7.94;73.49;99388.41;4992595;28;20583;-62
2023/12/30 03:23:48;;;;;;;4.73;3.10;;;;;;;7.97;73.83;99372.97;4987044;28;20220;-62
2023/12/30 03:26:16;;;;;;;4.83;2.70;;;;;;;8.00;73.51;99370.38;4992535;28;20311;-63
2023/12/30 03:28:44;;;;;;;4.47;2.70;;;;;;;8.03;73.27;99359.22;4992952;28;20262;-62
2023/12/30 03:31:21;;;;;;;6.30;3.20;;;;;;;8.06;73.32;99351.47;4990997;28;20200;-61
2023/12/30 03:33:50;;;;;;;5.03;2.90;;;;;;;8.09;73.07;99342.03;4992906;28;20207;-62
2023/12/30 03:36:19;;;;;;;4.73;2.57;;;;;;;8.12;72.95;99347.13;4992267;28;20212;-61
2023/12/30 03:38:48;;;;;;;6.60;3.27;;;;;;;8.14;72.50;99335.13;4992728;28;20665;-63
2023/12/30 03:41:17;;;;;;;4.80;3.00;;;;;;;8.16;72.85;99333.38;4992655;28;20251;-63
2023/12/30 03:43:46;;;;;;;3.90;2.87;;;;;;;8.22;72.10;99330.75;4992586;28;20212;-61
2023/12/30 03:46:14;;;;;;;3.60;2.30;;;;;;;8.26;72.25;99323.84;4992647;28;20600;-60
2023/12/30 03:48:42;;;;;;;4.20;2.60;;;;;;;8.27;72.54;99330.66;4990884;28;20207;-62
2023/12/30 03:51:11;;;;;;;3.97;2.70;;;;;;;8.32;72.64;99328.03;4992431;28;20208;-62
2023/12/30 03:53:39;;;;;;;3.17;2.40;;;;;;;8.35;72.07;99333.13;4992323;28;20204;-62
2023/12/30 03:56:07;;;;;;;4.33;2.43;;;;;;;8.37;71.85;99332.28;4992344;28;20706;-63
2023/12/30 03:58:35;;;;;;;3.67;2.43;;;;;;;8.42;71.76;99339.91;4992254;28;20208;-62
2023/12/30 04:01:03;;;;;;;3.87;2.20;;;;;;;8.46;71.40;99324.44;4992010;28;20200;-62
2023/12/30 04:03:31;;;;;;;2.70;2.03;;;;;;;8.53;71.24;99332.91;4990525;28;20208;-64
2023/12/30 04:05:59;;;;;;;4.57;2.07;;;;;;;8.59;70.71;99316.56;4991895;28;20243;-63
2023/12/30 04:08:28;;;;;;;4.33;2.40;;;;;;;8.62;70.78;99316.53;4986375;28;20208;-63
2023/12/30 04:10:56;;;;;;;4.50;2.30;;;;;;;8.65;70.90;99319.91;4992199;28;20685;-62
2023/12/30 04:13:24;;;;;;;2.27;1.93;;;;;;;8.72;70.19;99312.91;4991827;28;20196;-61
2023/12/30 04:15:52;;;;;;;4.63;2.30;;;;;;;8.78;69.98;99307.69;4991735;28;20252;-63
2023/12/30 04:18:20;;;;;;;2.30;1.90;;;;;;;8.83;70.36;99305.03;4991644;28;20204;-62
2023/12/30 04:20:49;;;;;;;3.13;2.27;;;;;;;8.87;69.92;99301.53;4990669;28;20301;-64
2023/12/30 04:23:17;;;;;;;2.10;1.90;;;;;;;8.92;69.27;99307.47;4990097;28;20239;-61
2023/12/30 04:25:46;;;;;;;3.70;2.03;;;;;;;8.99;69.32;99303.94;4991979;28;20266;-62
2023/12/30 04:28:14;;;;;;;2.20;1.80;;;;;;;9.03;69.13;99308.16;4991843;28;20207;-64
2023/12/30 04:30:42;;;;;;;2.63;1.90;;;;;;;9.07;68.36;99294.38;4992094;28;20587;-62
2023/12/30 04:33:10;;;;;;;3.60;1.87;;;;;;;9.09;68.65;99320.88;4991783;28;20270;-60
2023/12/30 04:35:41;;;;;;;3.23;2.10;;;;;;;9.11;68.22;99311.41;4991699;28;20204;-62
2023/12/30 04:38:09;;;;;;;2.50;1.90;;;;;;;9.15;68.36;99305.34;4991630;28;20200;-62
2023/12/30 04:40:37;;;;;;;3.23;2.07;;;;;;;9.16;68.37;99319.88;4990688;28;20579;-62
2023/12/30 04:43:06;;;;;;;2.20;1.50;;;;;;;9.21;67.86;99303.56;4991607;28;20204;-61
2023/12/30 04:45:34;;;;;;;2.00;1.50;;;;;;;9.23;68.06;99302.63;4991877;28;20254;-61
2023/12/30 04:48:04;;;;;;;3.10;2.00;;;;;;;9.23;67.99;99291.50;4991654;28;20243;-61
2023/12/30 04:50:33;;;;;;;3.30;2.20;;;;;;;9.24;67.31;99291.47;4991882;28;20219;-62
2023/12/30 04:53:01;;;;;;;3.47;1.70;;;;;;;9.25;67.26;99328.34;4991537;28;20291;-62
2023/12/30 04:55:30;;;;;;;2.40;1.87;;;;;;;9.24;67.65;99306.06;4991450;28;20254;-63
2023/12/30 04:57:58;;;;;;;6.27;2.00;;;;;;;9.24;67.49;99295.78;4990038;28;20216;-63
2023/12/30 05:00:27;;;;;;;2.77;1.80;;;;;;;9.23;68.26;99299.22;4995064;28;20258;-62
2023/12/30 05:02:55;;;;;;;5.00;2.20;;;;;;;9.20;68.10;99294.97;4995387;28;20219;-63
2023/12/30 05:05:24;;;;;;;2.80;1.90;;;;;;;9.16;68.53;99303.63;4995638;28;20274;-64
2023/12/30 05:07:52;;;;;;;3.47;1.90;;;;;;;9.15;68.43;99292.50;4995136;28;20290;-63
2023/12/30 05:10:20;;;;;;;1.87;1.67;;;;;;;9.13;68.42;99294.25;4995073;28;20200;-64
2023/12/30 05:12:48;;;;;;;2.47;2.17;;;;;;;9.12;68.44;99291.72;4994904;28;20235;-63
2023/12/30 05:15:16;;;;;;;3.07;2.10;;;;;;;9.11;68.73;99314.00;4993695;28;20239;-62
2023/12/30 05:17:45;;;;;;;3.17;2.20;;;;;;;9.10;68.40;99298.63;4989548;28;20262;-63
2023/12/30 05:20:16;;;;;;;2.27;1.80;;;;;;;9.10;68.73;99288.34;4995027;28;20295;-66
2023/12/30 05:22:44;;;;;;;4.37;2.00;;;;;;;9.08;68.73;99290.91;4994774;28;20286;-63
2023/12/30 05:25:13;;;;;;;2.73;1.70;;;;;;;9.10;68.63;99293.47;4994755;28;20278;-63
2023/12/30 05:27:41;;;;;;;2.80;1.50;;;;;;;9.07;69.09;99294.38;4994870;28;20486;-61
2023/12/30 05:30:09;;;;;;;1.87;1.50;;;;;;;9.07;69.12;99298.66;4993796;28;20226;-64
2023/12/30 05:32:37;;;;;;;2.43;1.80;;;;;;;9.08;68.78;99308.91;4993674;28;20204;-64
2023/12/30 05:35:08;;;;;;;2.37;1.77;;;;;;;9.08;69.25;99295.22;4994917;28;20684;-62
2023/12/30 05:37:35;;;;;;;2.20;1.90;;;;;;;9.07;69.21;99302.06;4994345;28;20220;-61
2023/12/30 05:40:07;;;;;;;2.00;1.63;;;;;;;9.08;68.83;99311.47;4994834;28;20588;-62
2023/12/30 05:42:38;;;;;;;2.37;1.70;;;;;;;9.09;69.12;99308.00;4993414;28;20215;-62
2023/12/30 05:45:07;;;;;;;3.23;2.00;;;;;;;9.08;68.74;99314.03;4994475;28;20200;-64
2023/12/30 05:47:36;;;;;;;2.77;1.70;;;;;;;9.09;68.90;99312.31;4994296;28;20246;-62
2023/12/30 05:50:05;;;;;;;6.67;1.90;;;;;;;9.10;68.50;99319.16;4994367;28;20210;-64
2023/12/30 05:52:35;;;;;;;2.23;1.70;;;;;;;9.09;68.62;99313.16;4994527;28;20323;-62
2023/12/30 05:55:03;;;;;;;1.90;1.57;;;;;;;9.10;68.49;99317.44;4994263;28;20258;-61
2023/12/30 05:57:32;;;;;;;2.03;1.70;;;;;;;9.10;68.87;99307.16;4994439;28;20652;-60
2023/12/30 06:00:02;;;;;;;4.43;1.90;;;;;;;9.10;68.44;99337.16;4992826;28;20218;-64
2023/12/30 06:02:30;;;;;;;1.67;1.50;;;;;;;9.10;68.89;99340.56;4994380;28;20566;-61
2023/12/30 06:04:57;;;;;;;2.70;2.00;;;;;;;9.08;69.64;99357.72;4994114;28;20208;-62
2023/12/30 06:07:25;;;;;;;3.67;1.63;;;;;;;9.07;69.21;99374.03;4993901;28;20255;-62
2023/12/30 06:09:55;;;;;;;3.30;1.70;;;;;;;9.04;70.49;99353.50;4993417;28;20262;-60
2023/12/30 06:12:23;;;;;;;1.90;1.40;;;;;;;9.00;71.10;99357.00;4993599;28;20212;-61
2023/12/30 06:14:51;;;;;;;1.80;1.40;;;;;;;8.97;71.07;99358.78;4994003;28;20211;-60
2023/12/30 06:17:19;;;;;;;1.10;1.00;;;;;;;8.91;70.37;99363.16;4992324;28;20699;-63
2023/12/30 06:19:47;;;;;;;1.80;1.10;;;;;;;8.91;70.66;99359.72;4993836;28;20219;-62
2023/12/30 06:22:15;;;;;;;1.70;1.10;;;;;;;8.87;70.91;99360.63;4993569;28;20248;-64
2023/12/30 06:24:43;;;;;;;1.00;0.80;;;;;;;8.81;71.62;99383.88;4993986;28;20483;-63
2023/12/30 06:27:12;;;;;;;2.13;0.90;;;;;;;8.73;73.31;99390.81;4994053;28;20656;-63
2023/12/30 06:29:40;;;;;;;0.73;0.50;;;;;;;8.60;74.71;99395.28;4991873;28;20220;-61
2023/12/30 06:32:08;;;;;;;1.30;0.60;;;;;;;8.42;76.72;99394.66;4992526;28;20544;-62
2023/12/30 06:34:36;;;;;;;0.70;0.60;;;;;;;8.22;78.13;99410.28;4993565;28;20222;-62
2023/12/30 06:37:04;;;;;;;1.10;0.80;;;;;;;8.07;79.29;99410.50;4993532;28;20227;-62
2023/12/30 06:39:32;;;;;;;0.70;0.60;;;;;;;7.95;80.74;99405.47;4993754;28;20654;-62
2023/12/30 06:42:00;;;;;;;0.63;0.63;;;;;;;7.84;80.31;99408.19;4993465;28;20216;-63
2023/12/30 06:44:30;;;;;;;1.90;0.80;;;;;;;7.78;80.80;99400.53;4993548;28;20201;-63
2023/12/30 06:46:58;;;;;;;0.80;0.67;;;;;;;7.77;80.42;99405.69;4993382;28;20294;-62
2023/12/30 06:49:26;;;;;;;1.20;0.70;;;;;;;7.74;79.61;99415.13;4992434;28;20594;-62
2023/12/30 06:51:54;;;;;;;0.50;0.50;;;;;;;7.76;79.24;99415.09;4991238;28;20204;-61
2023/12/30 06:54:22;;;;;;;0.77;0.40;;;;;;;7.70;78.14;99426.28;4993686;28;20228;-61
2023/12/30 06:56:53;;;;;;;0.90;0.63;;;;;;;7.69;78.89;99424.53;4993383;28;20292;-64
2023/12/30 06:59:21;;;;;;;0.80;0.57;;;;;;;7.66;78.45;99429.72;4993290;28;20286;-65
2023/12/30 07:01:50;;;;;;;0.97;0.50;;;;;;;7.66;79.22;99419.47;4993110;28;20582;-61
2023/12/30 07:04:18;;;;;;;0.70;0.50;;;;;;;7.68;78.93;99435.69;4992932;28;20206;-63
2023/12/30 07:06:47;;;;;;;1.00;0.57;;;;;;;7.68;79.44;99440.81;4991471;28;20278;-61
2023/12/30 07:09:15;;;;;;;1.23;0.80;;;;;;;7.62;79.11;99425.50;4982130;28;20362;-61
2023/12/30 07:11:43;;;;;;;1.60;0.87;;;;;;;7.66;79.37;99428.88;4991430;28;20228;-61
2023/12/30 07:14:10;;;;;;;0.70;0.70;;;;;;;7.66;80.23;99440.00;4993106;28;20656;-61
2023/12/30 07:16:38;;;;;;;0.90;0.80;;;;;;;7.64;79.78;99446.84;4987436;28;20220;-63
2023/12/30 07:19:08;;;;;;;1.10;0.77;;;;;;;7.64;80.38;99436.56;4986303;28;21043;-59
2023/12/30 07:21:36;;;;;;;1.90;0.97;;;;;;;7.66;81.14;99440.00;4983265;28;20237;-61
2023/12/30 07:24:04;;;;;;;0.70;0.70;;;;;;;7.67;82.04;99451.09;4987723;28;20222;-61
2023/12/30 07:26:33;;;;;;;2.53;0.93;;;;;;;7.62;82.23;99447.69;4992557;28;20207;-61
2023/12/30 07:29:00;;;;;;;1.97;1.07;;;;;;;7.62;81.64;99446.00;4992615;28;20569;-62
2023/12/30 07:31:28;;;;;;;1.20;1.00;;;;;;;7.64;82.74;99445.97;4991251;28;20270;-63
2023/12/30 07:33:57;;;;;;;3.03;1.20;;;;;;;7.65;82.86;99447.69;4992724;28;20636;-62
2023/12/30 07:36:27;;;;;;;1.57;1.10;;;;;;;7.66;82.25;99442.56;4992357;28;20208;-63
2023/12/30 07:38:54;;;;;;;0.93;0.90;;;;;;;7.69;82.78;99449.34;4990906;28;20227;-61
2023/12/30 07:41:22;;;;;;;1.73;1.20;;;;;;;7.70;82.90;99457.03;4992580;28;20218;-63
2023/12/30 07:43:50;;;;;;;1.70;1.47;;;;;;;7.71;82.39;99447.63;4990564;28;20222;-61
2023/12/30 07:46:18;;;;;;;2.00;1.43;;;;;;;7.73;82.88;99451.00;4991160;28;20589;-62
2023/12/30 07:48:46;;;;;;;1.17;1.00;;;;;;;7.74;81.84;99456.16;4992597;28;20564;-62
2023/12/30 07:51:14;;;;;;;2.33;1.13;;;;;;;7.79;82.49;99461.22;4984425;28;20235;-63
2023/12/30 07:53:43;;;;;;;2.90;1.20;;;;;;;7.83;82.72;99459.47;4992409;28;20214;-63
2023/12/30 07:56:11;;;;;;;1.23;1.07;;;;;;;7.91;82.21;99460.25;4992104;28;20650;-62
2023/12/30 07:58:40;;;;;;;2.33;1.20;;;;;;;8.01;82.08;99451.59;4990294;28;20211;-63
2023/12/30 08:01:08;;;;;;;1.17;0.87;;;;;;;8.08;80.91;99447.25;4992331;28;20627;-64
2023/12/30 08:03:36;;;;;;;1.50;1.00;;;;;;;8.12;80.98;99454.03;4990662;28;20204;-63
2023/12/30 08:06:04;;;;;;;1.17;1.03;;;;;;;8.15;79.80;99454.84;4991962;28;20212;-63
2023/12/30 08:08:32;;;;;;;1.23;1.13;;;;;;;8.21;79.47;99448.78;4992153;28;20204;-62
2023/12/30 08:11:01;;;;;;;0.97;0.80;;;;;;;8.21;78.78;99447.09;4991802;28;20212;-64
2023/12/30 08:13:29;;;;;;;1.10;1.00;;;;;;;8.19;78.28;99460.81;4991992;28;20204;-60
2023/12/30 08:15:58;;;;;;;1.43;0.90;;;;;;;8.14;77.96;99458.31;4992290;28;20607;-61
2023/12/30 08:18:26;;;;;;;1.13;0.90;;;;;;;8.11;77.96;99463.47;4982741;28;20329;-63
2023/12/30 08:20:54;;;;;;;2.47;1.10;;;;;;;8.07;77.64;99459.22;4992631;28;20602;-66
2023/12/30 08:23:22;;;;;;;1.07;0.93;;;;;;;8.00;78.13;99475.56;4991729;28;20330;-63
2023/12/30 08:25:50;;;;;;;1.03;0.87;;;;;;;7.97;78.25;99480.72;4990522;28;20741;-63
2023/12/30 08:28:20;;;;;;;1.23;0.90;;;;;;;7.98;77.57;99484.97;4991842;28;20239;-62
2023/12/30 08:30:50;;;;;;;5.57;1.37;;;;;;;7.96;77.95;99487.56;4990360;28;20211;-64
2023/12/30 08:33:18;;;;;;;1.30;1.00;;;;;;;7.95;78.34;99492.69;4992115;28;20603;-62
2023/12/30 08:35:48;;;;;;;1.90;1.40;;;;;;;7.92;79.67;99503.00;4994333;28;20359;-61
2023/12/30 08:38:17;;;;;;;2.00;1.40;;;;;;;7.86;79.68;99506.47;4994150;28;20224;-62
2023/12/30 08:40:45;;;;;;;2.57;1.10;;;;;;;7.84;80.56;99503.09;4995873;28;20213;-65
2023/12/30 08:43:14;;;;;;;1.33;1.23;;;;;;;7.73;81.05;99507.44;4994185;28;20203;-65
2023/12/30 08:45:43;;;;;;;2.30;1.20;;;;;;;7.64;80.87;99513.50;4994435;28;20204;-62
2023/12/30 08:48:11;;;;;;;2.83;1.07;;;;;;;7.58;81.91;99515.25;4995670;28;20208;-64
2023/12/30 08:50:39;;;;;;;2.20;0.93;;;;;;;7.54;82.49;99529.81;4995958;28;20658;-62
2023/12/30 08:53:07;;;;;;;1.70;0.90;;;;;;;7.50;83.03;99533.25;4995360;28;20289;-63
2023/12/30 08:55:35;;;;;;;2.67;1.10;;;;;;;7.46;83.98;99532.44;4995383;28;20670;-61
2023/12/30 08:58:04;;;;;;;2.80;1.57;;;;;;;7.43;83.67;99532.44;4995157;28;20707;-63
2023/12/30 09:00:32;;;;;;;1.37;1.07;;;;;;;7.36;84.93;99524.81;4993979;28;20248;-62
2023/12/30 09:03:02;;;;;;;1.97;1.20;;;;;;;7.31;83.93;99542.78;4995431;28;20215;-63
2023/12/30 09:05:32;;;;;;;1.03;0.93;;;;;;;7.29;84.65;99535.97;4995058;28;20204;-67
2023/12/30 09:08:03;;;;;;;1.00;0.90;;;;;;;7.25;84.68;99530.88;4995181;28;20208;-61
2023/12/30 09:10:32;;;;;;;2.10;1.23;;;;;;;7.21;84.90;99551.38;4995161;28;20243;-62
2023/12/30 09:13:00;;;;;;;1.97;1.20;;;;;;;7.18;86.05;99549.72;4995166;28;20219;-62
2023/12/30 09:15:28;;;;;;;2.53;1.10;;;;;;;7.17;86.28;99542.88;4994097;28;20633;-63
2023/12/30 09:17:57;;;;;;;1.30;0.93;;;;;;;7.15;87.11;99565.09;4995420;28;20212;-63
2023/12/30 09:20:27;;;;;;;1.20;1.07;;;;;;;7.09;86.26;99567.69;4995025;28;20318;-60
2023/12/30 09:22:55;;;;;;;1.00;0.80;;;;;;;6.88;82.30;99580.59;4993646;28;20729;-61
2023/12/30 09:25:24;;;;;;;1.20;0.53;;;;;;;6.56;81.11;99579.00;4995008;28;20250;-62
2023/12/30 09:27:52;;;;;;;1.23;0.40;;;;;;;6.24;82.66;99574.81;4995387;28;20542;-60
2023/12/30 09:30:20;;;;;;;1.03;0.40;;;;;;;6.06;83.87;99585.06;4994674;28;20200;-57
2023/12/30 09:32:48;;;;;;;0.50;0.50;;;;;;;5.98;84.81;99576.53;4993798;28;20204;-58
2023/12/30 09:35:16;;;;;;;0.67;0.40;;;;;;;5.95;84.78;99581.66;4994816;28;20204;-59
2023/12/30 09:37:46;;;;;;;0.47;0.47;;;;;;;5.92;85.44;99568.81;4994655;28;20208;-61
2023/12/30 09:40:15;;;;;;;1.03;0.50;;;;;;;5.90;85.65;99562.88;4995279;28;20306;-54
2023/12/30 09:42:47;;;;;;;1.40;0.60;;;;;;;5.93;85.94;99561.22;4995387;28;20246;-53
2023/12/30 09:45:16;;;;;;;0.97;0.70;;;;;;;5.96;85.62;99573.13;4993807;28;20254;-57
2023/12/30 09:47:46;;;;;;;1.63;0.60;;;;;;;5.98;85.70;99564.59;4995589;28;20733;-57
2023/12/30 09:50:14;;;;;;;1.57;0.60;;;;;;;6.01;86.21;99587.63;4994928;28;20196;-57
2023/12/30 09:52:43;;;;;;;0.70;0.70;;;;;;;6.00;86.99;99587.59;4994861;28;20671;-58
2023/12/30 09:55:12;;;;;;;1.83;0.70;;;;;;;6.03;87.34;99567.16;4994420;28;20211;-61
2023/12/30 09:57:41;;;;;;;1.17;0.80;;;;;;;6.10;87.71;99570.56;4994622;28;20218;-55
2023/12/30 10:00:10;;;;;;;1.63;1.03;;;;;;;6.17;87.79;99554.34;4994359;28;20231;-54
2023/12/30 10:02:39;;;;;;;2.70;1.07;;;;;;;6.21;87.04;99551.78;4993458;28;20676;-56
2023/12/30 10:05:08;;;;;;;3.20;0.90;;;;;;;6.27;87.39;99562.00;4994745;28;20270;-56
2023/12/30 10:07:39;;;;;;;2.03;1.53;;;;;;;6.32;86.81;99559.44;4994373;28;20218;-63
2023/12/30 10:10:08;;;;;;;1.87;1.20;;;;;;;6.34;87.16;99559.44;4994590;28;20290;-62
2023/12/30 10:12:38;;;;;;;1.33;1.23;;;;;;;6.43;87.29;99557.69;4994301;28;20210;-64
2023/12/30 10:15:06;;;;;;;2.50;1.53;;;;;;;6.47;88.01;99556.81;4994291;28;20232;-61
2023/12/30 10:17:38;;;;;;;2.53;1.60;;;;;;;6.51;87.73;99555.97;4993603;28;20367;-56
2023/12/30 10:20:07;;;;;;;2.07;1.87;;;;;;;6.56;88.17;99557.69;4994441;28;20299;-58
2023/12/30 10:22:38;;;;;;;2.40;1.83;;;;;;;6.56;86.90;99555.97;4994590;28;20318;-57
2023/12/30 10:25:08;;;;;;;2.73;1.63;;;;;;;6.56;86.94;99562.81;4994375;28;20208;-56
2023/12/30 10:27:39;;;;;;;1.73;1.40;;;;;;;6.65;87.95;99558.47;4994657;28;20663;-59
2023/12/30 10:30:08;;;;;;;1.83;1.60;;;;;;;6.73;87.13;99571.25;4994453;28;20200;-56
2023/12/30 10:32:37;;;;;;;2.57;1.67;;;;;;;6.82;86.29;99561.00;4988332;28;20212;-56
2023/12/30 10:35:05;;;;;;;2.70;1.80;;;;;;;6.89;85.75;99564.38;4991762;28;20204;-61
2023/12/30 10:37:35;;;;;;;2.53;1.60;;;;;;;6.97;86.06;99565.19;4993682;28;20212;-61
2023/12/30 10:40:06;;;;;;;3.13;1.50;;;;;;;6.99;83.51;99571.13;4993408;28;20690;-59
2023/12/30 10:42:34;;;;;;;2.60;1.80;;;;;;;6.97;83.18;99566.03;4993904;28;20676;-62
2023/12/30 10:45:03;;;;;;;3.73;1.40;;;;;;;7.02;84.17;99558.31;4993389;28;20241;-61
2023/12/30 10:47:38;;;;;;;2.43;1.27;;;;;;;7.00;81.70;99562.63;4992082;28;20243;-61
2023/12/30 10:50:09;;;;;;;1.37;1.13;;;;;;;7.03;81.85;99572.81;4993491;28;20286;-66
2023/12/30 10:52:46;;;;;;;2.10;1.30;;;;;;;7.04;80.62;99581.38;4993468;28;20303;-61
2023/12/30 10:55:16;;;;;;;1.70;1.10;;;;;;;7.01;80.58;99572.00;4993221;28;20222;-61
2023/12/30 10:57:51;;;;;;;1.70;1.10;;;;;;;7.05;79.40;99575.41;4992983;28;20222;-62
2023/12/30 11:00:21;;;;;;;1.37;1.20;;;;;;;7.06;79.35;99574.53;4993481;28;20219;-56
2023/12/30 11:02:50;;;;;;;3.07;1.23;;;;;;;7.10;79.76;99571.09;4992531;28;20227;-55
2023/12/30 11:05:27;;;;;;;3.43;1.30;;;;;;;7.15;79.32;99575.34;4993922;28;20687;-56
2023/12/30 11:07:55;;;;;;;1.73;1.33;;;;;;;7.23;79.05;99578.72;4985281;28;20199;-58
2023/12/30 11:10:24;;;;;;;1.50;1.13;;;;;;;7.29;77.83;99566.72;4993416;28;20723;-59
2023/12/30 11:12:53;;;;;;;4.33;1.10;;;;;;;7.33;77.33;99589.78;4991801;28;20299;-60
2023/12/30 11:15:26;;;;;;;1.30;1.10;;;;;;;7.33;76.57;99579.53;4992948;28;20204;-59
2023/12/30 11:17:56;;;;;;;1.43;1.27;;;;;;;7.35;76.20;99576.94;4993180;28;20626;-59
2023/12/30 11:20:29;;;;;;;1.20;1.10;;;;;;;7.34;76.01;99595.75;4992994;28;20232;-58
2023/12/30 11:23:01;;;;;;;1.60;1.10;;;;;;;7.32;76.49;99593.19;4992948;28;20603;-59
2023/12/30 11:25:41;;;;;;;1.83;1.33;;;;;;;7.31;76.16;99585.50;4992920;28;20212;-58
2023/12/30 11:28:13;;;;;;;2.13;1.40;;;;;;;7.33;76.40;99594.03;4991236;28;20204;-58
2023/12/30 11:30:45;;;;;;;1.70;1.37;;;;;;;7.34;75.06;99591.47;4992638;28;20287;-62
2023/12/30 11:33:14;;;;;;;2.17;1.10;;;;;;;7.22;75.02;99574.47;4992539;28;20207;-64
2023/12/30 11:35:42;;;;;;;2.80;1.50;;;;;;;7.19;75.85;99597.53;4992683;28;20254;-66
2023/12/30 11:38:13;;;;;;;1.73;1.10;;;;;;;7.15;75.55;99607.81;4992649;28;20216;-62
2023/12/30 11:40:49;;;;;;;1.53;1.17;;;;;;;7.11;76.38;99616.38;4992795;28;20220;-64
2023/12/30 11:43:20;;;;;;;2.50;1.60;;;;;;;7.04;76.73;99638.59;4992275;28;20207;-64
2023/12/30 11:45:51;;;;;;;0.83;0.83;;;;;;;6.89;77.60;99643.78;4991374;28;20203;-64
2023/12/30 11:48:19;;;;;;;0.80;0.80;;;;;;;6.73;77.43;99651.47;4988532;28;20644;-60